Time;durP1;ratioP1;P1;durP2;ratioP2;P2;SDS_P1;SDS_P2;PMS_P1;PMS_P2;Temp;Humidity;BMP_temperature;BMP_pressure;BME280_temperature;BME280_humidity;BME280_pressure;Samples;Min_cycle;Max_cycle;Signal;HPM_P1;HPM_P2
2024/02/04 00:01:32;;;;;;;;;;;;;;;6.09;61.28;100842.02;107592;1254;107526;-64
2024/02/04 00:04:01;;;;;;;;;;;;;;;6.11;61.32;100839.36;107585;1254;108599;-64
2024/02/04 00:06:29;;;;;;;;;;;;;;;6.13;61.31;100841.02;107613;1254;97841;-64
2024/02/04 00:08:57;;;;;;;;;;;;;;;6.14;61.33;100844.52;107612;1254;97905;-64
2024/02/04 00:11:26;;;;;;;;;;;;;;;6.15;61.41;100852.15;107634;1253;112040;-65
2024/02/04 00:13:54;;;;;;;;;;;;;;;6.13;61.24;100852.99;107582;1254;108727;-65
2024/02/04 00:16:22;;;;;;;;;;;;;;;6.15;61.41;100850.73;107567;1254;107234;-65
2024/02/04 00:18:50;;;;;;;;;;;;;;;6.16;61.33;100849.59;107521;1254;97826;-64
2024/02/04 00:21:19;;;;;;;;;;;;;;;6.16;61.32;100848.12;107646;1254;97844;-65
2024/02/04 00:23:47;;;;;;;;;;;;;;;6.17;61.59;100853.24;107519;1254;111866;-64
2024/02/04 00:26:15;;;;;;;;;;;;;;;6.15;61.32;100860.66;107624;1254;108134;-65
2024/02/04 00:28:43;;;;;;;;;;;;;;;6.13;61.36;100862.22;107621;1254;107619;-63
2024/02/04 00:31:12;;;;;;;;;;;;;;;6.14;61.40;100861.33;107649;1254;97960;-63
2024/02/04 00:33:40;;;;;;;;;;;;;;;6.12;61.28;100851.60;107525;1254;98364;-63
2024/02/04 00:36:08;;;;;;;;;;;;;;;6.11;61.26;100858.06;107536;1251;111616;-64
2024/02/04 00:38:36;;;;;;;;;;;;;;;6.12;61.32;100863.73;107527;1251;109907;-65
2024/02/04 00:41:05;;;;;;;;;;;;;;;6.13;61.25;100867.97;107543;1254;108211;-64
2024/02/04 00:43:33;;;;;;;;;;;;;;;6.13;61.39;100870.81;107552;1253;97841;-65
2024/02/04 00:46:02;;;;;;;;;;;;;;;6.12;61.39;100867.45;107679;1254;97854;-65
2024/02/04 00:48:31;;;;;;;;;;;;;;;6.09;61.41;100867.32;107602;1256;112277;-66
2024/02/04 00:50:59;;;;;;;;;;;;;;;6.01;61.47;100869.26;107453;1254;107822;-65
2024/02/04 00:53:33;;;;;;;;;;;;;;;5.93;61.58;100875.27;107530;1254;108852;-65
2024/02/04 00:56:05;;;;;;;;;;;;;;;5.90;62.03;100868.38;107540;1254;97854;-63
2024/02/04 00:58:33;;;;;;;;;;;;;;;5.89;62.06;100867.58;107437;1254;97724;-63
2024/02/04 01:01:02;;;;;;;;;;;;;;;5.88;62.07;100877.40;107632;1251;111529;-65
2024/02/04 01:03:31;;;;;;;;;;;;;;;5.90;62.07;100874.29;107531;1251;108708;-64
2024/02/04 01:06:00;;;;;;;;;;;;;;;5.92;62.02;100875.17;107515;1254;107054;-65
2024/02/04 01:08:28;;;;;;;;;;;;;;;5.94;61.92;100867.02;107529;1253;97858;-65
2024/02/04 01:10:56;;;;;;;;;;;;;;;5.98;61.94;100865.00;107617;1254;97720;-63
2024/02/04 01:13:25;;;;;;;;;;;;;;;6.02;61.79;100865.14;107421;1254;112634;-64
2024/02/04 01:15:53;;;;;;;;;;;;;;;6.06;61.93;100857.38;107465;1253;110060;-64
2024/02/04 01:18:21;;;;;;;;;;;;;;;6.09;61.71;100857.13;107483;1253;108200;-64
2024/02/04 01:20:50;;;;;;;;;;;;;;;6.14;61.74;100861.31;107653;1255;97933;-64
2024/02/04 01:23:18;;;;;;;;;;;;;;;6.16;61.47;100861.16;107544;1254;97841;-63
2024/02/04 01:25:46;;;;;;;;;;;;;;;6.17;61.30;100860.73;107532;1254;111238;-66
2024/02/04 01:28:15;;;;;;;;;;;;;;;6.16;61.22;100851.02;107692;1254;108361;-69
2024/02/04 01:30:43;;;;;;;;;;;;;;;6.17;61.14;100852.73;107565;1254;107602;-64
2024/02/04 01:33:11;;;;;;;;;;;;;;;6.14;61.39;100843.67;107505;1254;97940;-66
2024/02/04 01:35:39;;;;;;;;;;;;;;;6.10;61.40;100846.23;107535;1251;97819;-64
2024/02/04 01:38:07;;;;;;;;;;;;;;;6.07;61.50;100842.00;107543;1251;111088;-63
2024/02/04 01:40:36;;;;;;;;;;;;;;;6.03;61.51;100836.95;107558;1253;107137;-64
2024/02/04 01:43:04;;;;;;;;;;;;;;;5.99;61.58;100837.21;107588;1256;108400;-64
2024/02/04 01:45:32;;;;;;;;;;;;;;;5.96;61.80;100841.63;107551;1254;97966;-64
2024/02/04 01:48:01;;;;;;;;;;;;;;;5.94;61.94;100849.02;107639;1254;97955;-64
2024/02/04 01:50:29;;;;;;;;;;;;;;;5.90;62.09;100846.85;107589;1254;112035;-64
2024/02/04 01:52:57;;;;;;;;;;;;;;;5.87;62.17;100847.21;107643;1253;107215;-65
2024/02/04 01:55:25;;;;;;;;;;;;;;;5.84;62.19;100849.54;107629;1254;105902;-63
2024/02/04 01:57:54;;;;;;;;;;;;;;;5.81;62.65;100851.55;107411;1254;97814;-63
2024/02/04 02:00:22;;;;;;;;;;;;;;;5.76;62.52;100849.59;107456;1254;97800;-63
2024/02/04 02:02:52;;;;;;;;;;;;;;;5.72;62.43;100849.67;107666;1254;111551;-62
2024/02/04 02:05:21;;;;;;;;;;;;;;;5.65;62.45;100849.05;107448;1254;108701;-63
2024/02/04 02:07:51;;;;;;;;;;;;;;;5.56;62.60;100849.98;107469;1252;107671;-63
2024/02/04 02:10:20;;;;;;;;;;;;;;;5.49;62.54;100850.62;107593;1254;97925;-63
2024/02/04 02:12:56;;;;;;;;;;;;;;;5.42;62.64;100850.40;107460;1257;97829;-63
2024/02/04 02:15:27;;;;;;;;;;;;;;;5.38;63.05;100851.36;107404;1253;111174;-64
2024/02/04 02:17:55;;;;;;;;;;;;;;;5.36;63.51;100851.31;107455;1254;108460;-64
2024/02/04 02:20:41;;;;;;;;;;;;;;;5.36;63.80;100844.21;107615;1253;108779;-64
2024/02/04 02:23:16;;;;;;;;;;;;;;;5.35;64.10;100848.02;107630;1254;97947;-65
2024/02/04 02:25:46;;;;;;;;;;;;;;;5.35;64.11;100854.05;107608;1253;97826;-65
2024/02/04 02:28:14;;;;;;;;;;;;;;;5.33;64.24;100858.62;107571;1254;111719;-63
2024/02/04 02:30:42;;;;;;;;;;;;;;;5.31;64.24;100855.70;107532;1253;107444;-63
2024/02/04 02:33:11;;;;;;;;;;;;;;;5.29;64.45;100860.27;107579;1251;108647;-62
2024/02/04 02:35:39;;;;;;;;;;;;;;;5.26;64.38;100862.60;107628;1251;97822;-63
2024/02/04 02:38:15;;;;;;;;;;;;;;;5.24;64.43;100867.88;107683;1251;97838;-61
2024/02/04 02:41:04;;;;;;;;;;;;;;;5.21;64.27;100868.10;107610;1251;111547;-62
2024/02/04 02:43:33;;;;;;;;;;;;;;;5.17;64.41;100860.52;107604;1251;107993;-62
2024/02/04 02:46:02;;;;;;;;;;;;;;;5.15;64.07;100858.30;107605;1254;108303;-62
2024/02/04 02:48:30;;;;;;;;;;;;;;;5.07;63.84;100861.67;107535;1253;97915;-62
2024/02/04 02:50:59;;;;;;;;;;;;;;;5.01;64.32;100869.02;107572;1251;97902;-63
2024/02/04 02:53:27;;;;;;;;;;;;;;;5.00;64.41;100869.05;107520;1251;111767;-63
2024/02/04 02:55:55;;;;;;;;;;;;;;;5.02;64.51;100869.98;107623;1251;108358;-63
2024/02/04 02:58:23;;;;;;;;;;;;;;;5.04;64.90;100871.11;107582;1256;108221;-64
2024/02/04 03:00:52;;;;;;;;;;;;;;;5.08;64.84;100871.91;107556;1250;97726;-64
2024/02/04 03:03:20;;;;;;;;;;;;;;;5.14;64.85;100878.70;107570;1251;97821;-64
2024/02/04 03:05:49;;;;;;;;;;;;;;;5.18;64.75;100882.70;107628;1254;111574;-63
2024/02/04 03:08:18;;;;;;;;;;;;;;;5.22;64.56;100880.46;107663;1251;107547;-63
2024/02/04 03:10:46;;;;;;;;;;;;;;;5.28;64.52;100883.27;107539;1254;108390;-64
2024/02/04 03:13:15;;;;;;;;;;;;;;;5.32;64.38;100882.31;107571;1251;97845;-63
2024/02/04 03:15:43;;;;;;;;;;;;;;;5.36;64.34;100872.80;107671;1251;97854;-63
2024/02/04 03:18:11;;;;;;;;;;;;;;;5.39;64.26;100873.88;107557;1251;111253;-63
2024/02/04 03:20:40;;;;;;;;;;;;;;;5.40;64.06;100872.21;107651;1254;107782;-63
2024/02/04 03:23:09;;;;;;;;;;;;;;;5.40;64.01;100874.13;107437;1257;107442;-66
2024/02/04 03:25:37;;;;;;;;;;;;;;;5.41;63.92;100881.89;107480;1257;97934;-66
2024/02/04 03:28:05;;;;;;;;;;;;;;;5.40;63.95;100881.24;107667;1253;97822;-66
2024/02/04 03:30:33;;;;;;;;;;;;;;;5.40;63.94;100883.26;107567;1251;111856;-64
2024/02/04 03:33:02;;;;;;;;;;;;;;;5.36;63.84;100868.73;107598;1251;108582;-64
2024/02/04 03:35:30;;;;;;;;;;;;;;;5.34;63.97;100866.38;107669;1254;106522;-65
2024/02/04 03:37:59;;;;;;;;;;;;;;;5.29;63.96;100864.17;107641;1251;97925;-63
2024/02/04 03:40:27;;;;;;;;;;;;;;;5.26;64.04;100864.04;107505;1253;97835;-64
2024/02/04 03:42:56;;;;;;;;;;;;;;;5.23;64.01;100868.14;107549;1254;111837;-65
2024/02/04 03:45:24;;;;;;;;;;;;;;;5.21;64.44;100874.15;107576;1250;108231;-64
2024/02/04 03:47:52;;;;;;;;;;;;;;;5.21;64.39;100871.64;107588;1251;108292;-64
2024/02/04 03:50:20;;;;;;;;;;;;;;;5.20;64.33;100869.78;107641;1251;98005;-65
2024/02/04 03:52:48;;;;;;;;;;;;;;;5.14;64.19;100866.04;107619;1251;97825;-65
2024/02/04 03:55:17;;;;;;;;;;;;;;;5.07;64.15;100865.77;107604;1256;111840;-64
2024/02/04 03:57:46;;;;;;;;;;;;;;;5.02;64.44;100867.14;107493;1253;108607;-64
2024/02/04 04:00:14;;;;;;;;;;;;;;;4.97;64.52;100869.59;107553;1251;107655;-64
2024/02/04 04:02:42;;;;;;;;;;;;;;;4.95;64.76;100868.86;107591;1251;97926;-63
2024/02/04 04:05:12;;;;;;;;;;;;;;;4.96;64.63;100875.86;107628;1251;97797;-62
2024/02/04 04:07:40;;;;;;;;;;;;;;;4.92;64.75;100875.09;107515;1251;112432;-63
2024/02/04 04:10:09;;;;;;;;;;;;;;;4.84;65.33;100878.05;107486;1251;107351;-62
2024/02/04 04:12:37;;;;;;;;;;;;;;;4.84;65.53;100873.23;107533;1251;107804;-61
2024/02/04 04:15:06;;;;;;;;;;;;;;;4.89;65.75;100870.66;107580;1251;97854;-62
2024/02/04 04:17:34;;;;;;;;;;;;;;;4.94;65.61;100867.88;107557;1251;97963;-62
2024/02/04 04:20:04;;;;;;;;;;;;;;;4.99;66.11;100861.99;107599;1251;112175;-65
2024/02/04 04:22:32;;;;;;;;;;;;;;;5.06;66.10;100863.91;107602;1251;107129;-65
2024/02/04 04:25:00;;;;;;;;;;;;;;;5.10;66.05;100845.64;107546;1251;107296;-65
2024/02/04 04:27:28;;;;;;;;;;;;;;;5.14;66.00;100839.91;107541;1251;97815;-65
2024/02/04 04:29:57;;;;;;;;;;;;;;;5.18;66.39;100848.77;107530;1254;97934;-64
2024/02/04 04:32:25;;;;;;;;;;;;;;;5.20;66.23;100846.45;107501;1251;111950;-64
2024/02/04 04:34:55;;;;;;;;;;;;;;;5.21;66.04;100843.05;107518;1251;109084;-64
2024/02/04 04:37:23;;;;;;;;;;;;;;;5.21;66.10;100845.89;107503;1250;107837;-64
2024/02/04 04:39:51;;;;;;;;;;;;;;;5.22;65.91;100844.73;107505;1251;97741;-65
2024/02/04 04:42:20;;;;;;;;;;;;;;;5.26;66.03;100845.73;107496;1254;97815;-64
2024/02/04 04:44:48;;;;;;;;;;;;;;;5.27;65.97;100856.16;107600;1251;112303;-64
2024/02/04 04:47:16;;;;;;;;;;;;;;;5.29;65.85;100859.56;107582;1254;107828;-63
2024/02/04 04:49:44;;;;;;;;;;;;;;;5.31;65.92;100862.10;107543;1251;107646;-63
2024/02/04 04:52:13;;;;;;;;;;;;;;;5.34;65.79;100862.61;107530;1251;97845;-65
2024/02/04 04:54:42;;;;;;;;;;;;;;;5.38;65.80;100864.55;107497;1251;97806;-65
2024/02/04 04:57:11;;;;;;;;;;;;;;;5.41;65.80;100870.50;107512;1251;111393;-65
2024/02/04 04:59:39;;;;;;;;;;;;;;;5.43;65.62;100873.27;107575;1251;107562;-65
2024/02/04 05:02:08;;;;;;;;;;;;;;;5.43;65.56;100870.80;107554;1250;108318;-65
2024/02/04 05:04:36;;;;;;;;;;;;;;;5.44;65.62;100867.98;107575;1251;97821;-64
2024/02/04 05:07:04;;;;;;;;;;;;;;;5.47;65.43;100863.05;107540;1251;97810;-65
2024/02/04 05:09:32;;;;;;;;;;;;;;;5.52;65.57;100869.14;107506;1250;111980;-65
2024/02/04 05:12:02;;;;;;;;;;;;;;;5.55;65.50;100863.77;107566;1251;108074;-65
2024/02/04 05:14:30;;;;;;;;;;;;;;;5.57;65.47;100862.56;107513;1254;108401;-65
2024/02/04 05:16:58;;;;;;;;;;;;;;;5.59;65.18;100862.25;107530;1251;97730;-64
2024/02/04 05:19:26;;;;;;;;;;;;;;;5.57;65.21;100865.05;107537;1250;97928;-65
2024/02/04 05:21:55;;;;;;;;;;;;;;;5.58;65.26;100862.27;107631;1254;112691;-65
2024/02/04 05:24:23;;;;;;;;;;;;;;;5.57;65.40;100863.79;107622;1251;108920;-64
2024/02/04 05:26:51;;;;;;;;;;;;;;;5.56;65.38;100869.19;107490;1251;108614;-64
2024/02/04 05:29:19;;;;;;;;;;;;;;;5.50;64.97;100868.90;107542;1251;97826;-65
2024/02/04 05:31:47;;;;;;;;;;;;;;;5.44;65.13;100867.89;107578;1251;97892;-65
2024/02/04 05:34:15;;;;;;;;;;;;;;;5.35;64.99;100865.59;107553;1251;111903;-65
2024/02/04 05:36:44;;;;;;;;;;;;;;;5.28;65.04;100864.79;107543;1254;110200;-65
2024/02/04 05:39:13;;;;;;;;;;;;;;;5.23;65.36;100866.21;107654;1252;107263;-64
2024/02/04 05:41:42;;;;;;;;;;;;;;;5.17;65.29;100861.95;107538;1251;97858;-64
2024/02/04 05:44:10;;;;;;;;;;;;;;;5.12;65.23;100867.92;107541;1251;97834;-64
2024/02/04 05:46:39;;;;;;;;;;;;;;;5.08;65.22;100872.15;107582;1250;111388;-65
2024/02/04 05:49:07;;;;;;;;;;;;;;;5.05;65.30;100871.41;107556;1251;106154;-64
2024/02/04 05:51:40;;;;;;;;;;;;;;;5.05;65.65;100868.55;107503;1251;108468;-65
2024/02/04 05:54:09;;;;;;;;;;;;;;;5.07;65.92;100871.63;107511;1250;97821;-65
2024/02/04 05:56:37;;;;;;;;;;;;;;;5.09;66.15;100871.66;107550;1251;97713;-64
2024/02/04 05:59:05;;;;;;;;;;;;;;;5.12;66.27;100873.81;107532;1251;111871;-65
2024/02/04 06:01:33;;;;;;;;;;;;;;;5.15;66.30;100877.02;107551;1254;108606;-65
2024/02/04 06:04:02;;;;;;;;;;;;;;;5.18;66.41;100878.39;107582;1251;107522;-64
2024/02/04 06:06:30;;;;;;;;;;;;;;;5.23;66.34;100883.95;107561;1250;97860;-64
2024/02/04 06:08:58;;;;;;;;;;;;;;;5.28;66.34;100887.58;107594;1251;97741;-64
2024/02/04 06:11:26;;;;;;;;;;;;;;;5.33;66.29;100880.12;107590;1250;112151;-65
2024/02/04 06:13:55;;;;;;;;;;;;;;;5.36;66.12;100875.48;107598;1253;107909;-63
2024/02/04 06:16:23;;;;;;;;;;;;;;;5.38;66.02;100868.41;107582;1250;107680;-64
2024/02/04 06:18:55;;;;;;;;;;;;;;;5.40;66.01;100862.95;107580;1250;97837;-64
2024/02/04 06:21:24;;;;;;;;;;;;;;;5.42;65.73;100855.02;107572;1253;97771;-65
2024/02/04 06:23:52;;;;;;;;;;;;;;;5.41;65.59;100845.61;107453;1253;112204;-63
2024/02/04 06:26:20;;;;;;;;;;;;;;;5.43;65.86;100841.45;107626;1251;108416;-62
2024/02/04 06:28:50;;;;;;;;;;;;;;;5.43;65.68;100832.52;107639;1251;108352;-65
2024/02/04 06:31:19;;;;;;;;;;;;;;;5.45;65.65;100840.72;107556;1251;97953;-64
2024/02/04 06:33:47;;;;;;;;;;;;;;;5.48;65.59;100833.58;107632;1251;97960;-65
2024/02/04 06:36:16;;;;;;;;;;;;;;;5.50;65.59;100835.61;107631;1251;112418;-64
2024/02/04 06:38:44;;;;;;;;;;;;;;;5.52;65.50;100834.43;107637;1251;110022;-64
2024/02/04 06:41:12;;;;;;;;;;;;;;;5.55;65.48;100835.64;107604;1251;109423;-64
2024/02/04 06:43:40;;;;;;;;;;;;;;;5.58;65.33;100831.89;107608;1251;98191;-65
2024/02/04 06:46:08;;;;;;;;;;;;;;;5.59;65.40;100828.27;107598;1251;97812;-65
2024/02/04 06:48:37;;;;;;;;;;;;;;;5.59;65.31;100824.00;107602;1251;112408;-65
2024/02/04 06:51:05;;;;;;;;;;;;;;;5.59;65.38;100826.48;107584;1250;108005;-64
2024/02/04 06:53:34;;;;;;;;;;;;;;;5.60;65.32;100817.34;107620;1250;108053;-64
2024/02/04 06:56:02;;;;;;;;;;;;;;;5.66;65.27;100812.31;107618;1252;97915;-67
2024/02/04 06:58:30;;;;;;;;;;;;;;;5.74;65.35;100813.36;107609;1251;97858;-64
2024/02/04 07:00:58;;;;;;;;;;;;;;;5.83;65.57;100819.52;107598;1251;111000;-64
2024/02/04 07:03:27;;;;;;;;;;;;;;;5.90;65.66;100823.84;107662;1251;108680;-63
2024/02/04 07:05:55;;;;;;;;;;;;;;;5.95;65.68;100820.68;107550;1251;108299;-63
2024/02/04 07:08:23;;;;;;;;;;;;;;;6.01;65.59;100824.27;107606;1251;97868;-65
2024/02/04 07:10:51;;;;;;;;;;;;;;;6.07;65.81;100826.68;107596;1251;98361;-65
2024/02/04 07:13:19;;;;;;;;;;;;;;;6.12;65.79;100825.24;107579;1251;110273;-65
2024/02/04 07:15:47;;;;;;;;;;;;;;;6.19;65.86;100820.35;107661;1251;108580;-67
2024/02/04 07:18:17;;;;;;;;;;;;;;;6.26;65.80;100825.77;107567;1251;108452;-65
2024/02/04 07:20:45;;;;;;;;;;;;;;;6.30;65.49;100833.31;107559;1251;97835;-62
2024/02/04 07:23:13;;;;;;;;;;;;;;;6.31;65.03;100826.08;107619;1251;97794;-65
2024/02/04 07:25:42;;;;;;;;;;;;;;;6.37;65.27;100820.13;107623;1250;111417;-65
2024/02/04 07:28:10;;;;;;;;;;;;;;;6.48;65.25;100816.71;107598;1251;108331;-64
2024/02/04 07:30:38;;;;;;;;;;;;;;;6.62;65.47;100832.13;107601;1251;108640;-64
2024/02/04 07:33:07;;;;;;;;;;;;;;;6.76;65.47;100839.32;107540;1254;97701;-63
2024/02/04 07:35:35;;;;;;;;;;;;;;;6.87;65.12;100837.30;107586;1251;97841;-64
2024/02/04 07:38:03;;;;;;;;;;;;;;;6.93;64.58;100825.15;107605;1253;111404;-65
2024/02/04 07:40:32;;;;;;;;;;;;;;;6.99;64.07;100826.08;107615;1251;107325;-65
2024/02/04 07:43:00;;;;;;;;;;;;;;;7.01;62.99;100824.48;107525;1251;109074;-64
2024/02/04 07:45:28;;;;;;;;;;;;;;;7.05;62.89;100824.91;107526;1251;97815;-66
2024/02/04 07:47:57;;;;;;;;;;;;;;;7.12;62.12;100820.67;107581;1251;97805;-64
2024/02/04 07:50:25;;;;;;;;;;;;;;;7.16;62.31;100819.55;107574;1251;111847;-65
2024/02/04 07:52:54;;;;;;;;;;;;;;;7.19;62.13;100821.45;107556;1253;108921;-65
2024/02/04 07:55:22;;;;;;;;;;;;;;;7.23;62.43;100822.23;107665;1251;108656;-65
2024/02/04 07:57:50;;;;;;;;;;;;;;;7.29;62.32;100815.40;107552;1251;97857;-64
2024/02/04 08:00:18;;;;;;;;;;;;;;;7.34;61.76;100814.83;107563;1251;97787;-63
2024/02/04 08:02:46;;;;;;;;;;;;;;;7.36;61.54;100813.25;107601;1251;111585;-64
2024/02/04 08:05:15;;;;;;;;;;;;;;;7.42;61.42;100808.55;107681;1251;108584;-62
2024/02/04 08:07:44;;;;;;;;;;;;;;;7.44;61.55;100810.32;107671;1253;108947;-65
2024/02/04 08:10:15;;;;;;;;;;;;;;;7.46;61.43;100816.27;107556;1251;97854;-63
2024/02/04 08:12:44;;;;;;;;;;;;;;;7.47;61.37;100820.77;107660;1251;97805;-64
2024/02/04 08:15:12;;;;;;;;;;;;;;;7.50;61.28;100822.92;107573;1250;112560;-66
2024/02/04 08:17:40;;;;;;;;;;;;;;;7.50;60.92;100819.33;107631;1250;108088;-66
2024/02/04 08:20:09;;;;;;;;;;;;;;;7.56;61.18;100828.88;107564;1251;107809;-65
2024/02/04 08:22:38;;;;;;;;;;;;;;;7.65;60.80;100826.94;107659;1250;97832;-65
2024/02/04 08:25:07;;;;;;;;;;;;;;;7.84;60.75;100824.66;107606;1251;97835;-66
2024/02/04 08:27:35;;;;;;;;;;;;;;;8.14;60.96;100830.06;107623;1254;110695;-65
2024/02/04 08:30:04;;;;;;;;;;;;;;;8.30;60.25;100828.11;107576;1250;108501;-64
2024/02/04 08:32:32;;;;;;;;;;;;;;;8.40;59.25;100831.78;107654;1251;107871;-64
2024/02/04 08:35:01;;;;;;;;;;;;;;;8.52;59.00;100830.35;107566;1254;97759;-63
2024/02/04 08:37:30;;;;;;;;;;;;;;;8.65;58.81;100822.21;107630;1250;97984;-63
2024/02/04 08:39:58;;;;;;;;;;;;;;;8.80;59.37;100823.45;107617;1251;111990;-64
2024/02/04 08:42:26;;;;;;;;;;;;;;;8.99;58.87;100820.85;107582;1251;109003;-64
2024/02/04 08:44:54;;;;;;;;;;;;;;;9.23;58.09;100828.11;107094;1251;555433;-63
2024/02/04 08:47:23;;;;;;;;;;;;;;;9.35;56.15;100835.30;107589;1251;97915;-63
2024/02/04 08:49:51;;;;;;;;;;;;;;;9.36;56.14;100833.63;107624;1251;97813;-66
2024/02/04 08:52:20;;;;;;;;;;;;;;;9.35;55.76;100834.99;107668;1251;111265;-64
2024/02/04 08:54:48;;;;;;;;;;;;;;;9.34;56.20;100833.77;107660;1251;109455;-65
2024/02/04 08:57:16;;;;;;;;;;;;;;;9.35;55.72;100837.08;107592;1251;107551;-64
2024/02/04 08:59:45;;;;;;;;;;;;;;;9.35;55.12;100841.45;107552;1254;97950;-64
2024/02/04 09:02:13;;;;;;;;;;;;;;;9.48;55.35;100839.84;107596;1251;97950;-66
2024/02/04 09:04:41;;;;;;;;;;;;;;;9.70;55.36;100839.61;107581;1251;111442;-66
2024/02/04 09:07:10;;;;;;;;;;;;;;;9.96;55.37;100824.84;107623;1254;108003;-63
2024/02/04 09:09:38;;;;;;;;;;;;;;;10.29;54.96;100828.73;107591;1251;109827;-64
2024/02/04 09:12:08;;;;;;;;;;;;;;;10.56;53.26;100825.00;107547;1251;97819;-64
2024/02/04 09:14:36;;;;;;;;;;;;;;;10.86;53.75;100819.84;107566;1251;97704;-63
2024/02/04 09:17:06;;;;;;;;;;;;;;;11.44;52.72;100822.67;107642;1251;111046;-63
2024/02/04 09:19:35;;;;;;;;;;;;;;;12.11;51.15;100825.89;107550;1251;107303;-62
2024/02/04 09:22:08;;;;;;;;;;;;;;;12.87;48.08;100820.67;107584;1256;107802;-62
2024/02/04 09:24:37;;;;;;;;;;;;;;;13.26;45.69;100817.03;107572;1253;97853;-63
2024/02/04 09:27:05;;;;;;;;;;;;;;;13.27;45.17;100810.86;107609;1251;97813;-64
2024/02/04 09:29:33;;;;;;;;;;;;;;;13.43;44.95;100813.14;107556;1250;111854;-65
2024/02/04 09:32:01;;;;;;;;;;;;;;;13.50;44.79;100816.82;107539;1251;107550;-66
2024/02/04 09:34:30;;;;;;;;;;;;;;;13.43;44.67;100818.21;107537;1254;109407;-66
2024/02/04 09:36:59;;;;;;;;;;;;;;;13.47;44.52;100810.79;107558;1251;97844;-65
2024/02/04 09:39:29;;;;;;;;;;;;;;;13.39;44.28;100810.38;107565;1251;97755;-64
2024/02/04 09:41:59;;;;;;;;;;;;;;;13.38;44.92;100801.30;107554;1253;112171;-66
2024/02/04 09:44:27;;;;;;;;;;;;;;;13.52;45.73;100784.88;107565;1256;108839;-65
2024/02/04 09:46:58;;;;;;;;;;;;;;;13.72;45.06;100782.15;107626;1251;108206;-66
2024/02/04 09:49:27;;;;;;;;;;;;;;;14.00;44.57;100773.22;107540;1251;98527;-66
2024/02/04 09:51:59;;;;;;;;;;;;;;;14.28;44.35;100767.81;107648;1254;97743;-63
2024/02/04 09:54:29;;;;;;;;;;;;;;;14.35;42.68;100779.11;107590;1250;112063;-65
2024/02/04 09:56:58;;;;;;;;;;;;;;;14.26;42.60;100774.90;107628;1251;106762;-65
2024/02/04 09:59:26;;;;;;;;;;;;;;;14.32;42.67;100771.55;107586;1251;108242;-65
2024/02/04 10:01:55;;;;;;;;;;;;;;;14.68;41.84;100769.60;107593;1251;97746;-64
2024/02/04 10:04:24;;;;;;;;;;;;;;;15.32;41.23;100762.05;107659;1251;97733;-65
2024/02/04 10:06:52;;;;;;;;;;;;;;;15.98;41.20;100760.65;107568;1251;111426;-66
2024/02/04 10:09:21;;;;;;;;;;;;;;;16.58;40.51;100756.61;107573;1251;110204;-65
2024/02/04 10:11:49;;;;;;;;;;;;;;;16.62;39.00;100748.17;107513;1252;107908;-66
2024/02/04 10:14:20;;;;;;;;;;;;;;;17.39;39.24;100741.65;107550;1252;97896;-66
2024/02/04 10:16:49;;;;;;;;;;;;;;;18.20;37.39;100732.27;107616;1251;97815;-66
2024/02/04 10:19:17;;;;;;;;;;;;;;;18.99;36.71;100724.86;107538;1251;111290;-65
2024/02/04 10:21:45;;;;;;;;;;;;;;;19.04;34.17;100732.84;107588;1251;108710;-65
2024/02/04 10:24:14;;;;;;;;;;;;;;;18.72;34.64;100722.44;107583;1251;108587;-64
2024/02/04 10:26:43;;;;;;;;;;;;;;;18.98;34.61;100718.69;107516;1251;97868;-65
2024/02/04 10:29:11;;;;;;;;;;;;;;;19.73;33.59;100716.53;107535;1254;97858;-65
2024/02/04 10:31:40;;;;;;;;;;;;;;;20.22;33.82;100712.02;107622;1255;112163;-65
2024/02/04 10:34:08;;;;;;;;;;;;;;;19.46;33.03;100715.39;107570;1255;107631;-65
2024/02/04 10:36:37;;;;;;;;;;;;;;;18.45;33.34;100720.51;107595;1251;108502;-65
2024/02/04 10:39:06;;;;;;;;;;;;;;;17.61;34.67;100722.93;107523;1251;97825;-65
2024/02/04 10:41:41;;;;;;;;;;;;;;;16.70;35.79;100730.23;107653;1251;97813;-64
2024/02/04 10:44:11;;;;;;;;;;;;;;;16.05;37.15;100732.25;107546;1251;111240;-64
2024/02/04 10:46:39;;;;;;;;;;;;;;;15.50;37.97;100740.92;107576;1251;108582;-64
2024/02/04 10:49:13;;;;;;;;;;;;;;;15.08;38.96;100744.65;107567;1254;106962;-65
2024/02/04 10:51:42;;;;;;;;;;;;;;;14.73;39.91;100734.02;107599;1250;97860;-65
2024/02/04 10:54:15;;;;;;;;;;;;;;;14.49;40.54;100728.84;107651;1251;97828;-65
2024/02/04 10:56:45;;;;;;;;;;;;;;;14.55;39.46;100726.19;107586;1251;111482;-66
2024/02/04 10:59:21;;;;;;;;;;;;;;;14.50;40.58;100716.45;107576;1255;108226;-64
2024/02/04 11:01:50;;;;;;;;;;;;;;;14.44;40.73;100717.27;107584;1251;108442;-64
2024/02/04 11:04:18;;;;;;;;;;;;;;;14.16;40.68;100720.20;107584;1251;98008;-65
2024/02/04 11:06:47;;;;;;;;;;;;;;;13.81;41.39;100715.64;107605;1251;97909;-64
2024/02/04 11:09:16;;;;;;;;;;;;;;;13.50;42.11;100716.52;107571;1251;112525;-65
2024/02/04 11:11:46;;;;;;;;;;;;;;;13.17;42.91;100721.80;107537;1251;108723;-65
2024/02/04 11:14:16;;;;;;;;;;;;;;;12.88;43.57;100725.02;107611;1251;106585;-65
2024/02/04 11:16:54;;;;;;;;;;;;;;;12.72;44.30;100730.13;107574;1251;97809;-65
2024/02/04 11:19:31;;;;;;;;;;;;;;;12.49;44.99;100728.24;107590;1251;97832;-66
2024/02/04 11:22:06;;;;;;;;;;;;;;;12.40;45.30;100732.92;107569;1251;112214;-66
2024/02/04 11:24:43;;;;;;;;;;;;;;;12.28;45.52;100731.55;107609;1251;108425;-65
2024/02/04 11:27:12;;;;;;;;;;;;;;;12.16;45.99;100736.48;107543;1251;107240;-64
2024/02/04 11:29:40;;;;;;;;;;;;;;;12.09;46.51;100746.97;107608;1251;98066;-65
2024/02/04 11:32:09;;;;;;;;;;;;;;;11.98;47.32;100755.96;107574;1251;97709;-66
2024/02/04 11:34:37;;;;;;;;;;;;;;;11.86;47.75;100755.44;107608;1251;111076;-65
2024/02/04 11:37:19;;;;;;;;;;;;;;;11.80;47.83;100759.59;107639;1256;107299;-65
2024/02/04 11:39:49;;;;;;;;;;;;;;;11.70;48.03;100753.70;107565;1252;108256;-65
2024/02/04 11:42:19;;;;;;;;;;;;;;;11.55;48.07;100747.38;107585;1251;97819;-65
2024/02/04 11:44:48;;;;;;;;;;;;;;;11.28;48.90;100750.73;107653;1251;97816;-65
2024/02/04 11:47:23;;;;;;;;;;;;;;;11.10;49.47;100739.40;107626;1251;110973;-65
2024/02/04 11:49:55;;;;;;;;;;;;;;;11.08;50.36;100727.20;107585;1251;108119;-66
2024/02/04 11:52:26;;;;;;;;;;;;;;;11.04;51.65;100723.51;107674;1251;107749;-65
2024/02/04 11:54:55;;;;;;;;;;;;;;;10.89;52.82;100721.76;107574;1251;97837;-65
2024/02/04 11:57:24;;;;;;;;;;;;;;;10.78;53.16;100713.91;107593;1250;97857;-65
2024/02/04 11:59:55;;;;;;;;;;;;;;;10.81;53.34;100707.20;107631;1251;111530;-63
2024/02/04 12:02:23;;;;;;;;;;;;;;;10.93;53.52;100702.33;107650;1251;107038;-63
2024/02/04 12:04:52;;;;;;;;;;;;;;;11.22;53.20;100699.02;107587;1251;107809;-63
2024/02/04 12:07:20;;;;;;;;;;;;;;;11.69;52.66;100693.42;107619;1251;97847;-64
2024/02/04 12:09:49;;;;;;;;;;;;;;;12.08;51.72;100684.71;107653;1251;97681;-64
2024/02/04 12:12:17;;;;;;;;;;;;;;;12.55;51.92;100685.35;107559;1250;112267;-64
2024/02/04 12:14:45;;;;;;;;;;;;;;;13.07;51.43;100681.52;107597;1251;108616;-64
2024/02/04 12:17:14;;;;;;;;;;;;;;;13.51;51.15;100664.83;107585;1252;107367;-66
2024/02/04 12:19:42;;;;;;;;;;;;;;;13.96;50.23;100638.27;107626;1251;97855;-65
2024/02/04 12:22:11;;;;;;;;;;;;;;;14.23;49.48;100646.16;107581;1251;97826;-66
2024/02/04 12:24:40;;;;;;;;;;;;;;;14.54;49.27;100650.66;107649;1251;111564;-65
2024/02/04 12:27:08;;;;;;;;;;;;;;;14.72;47.05;100652.23;107567;1250;107153;-65
2024/02/04 12:29:37;;;;;;;;;;;;;;;14.69;46.15;100647.88;107608;1251;108292;-65
2024/02/04 12:32:06;;;;;;;;;;;;;;;14.61;46.21;100650.34;107553;1251;97739;-64
2024/02/04 12:34:36;;;;;;;;;;;;;;;14.54;46.32;100650.46;107661;1251;97812;-65
2024/02/04 12:37:04;;;;;;;;;;;;;;;14.41;46.01;100641.23;107587;1251;113074;-65